createdAt,value
2019-05-01T00:00:30.487Z,7.70
2019-05-01T00:15:51.750Z,7.50
2019-05-01T00:18:22.200Z,7.50
2019-05-01T00:20:52.527Z,7.50
2019-05-01T00:23:23.166Z,7.40
2019-05-01T00:28:22.985Z,7.30
2019-05-01T00:30:53.354Z,7.30
2019-05-01T00:40:52.679Z,7.30
2019-05-01T00:43:22.986Z,7.30
2019-05-01T00:45:53.266Z,8.10
2019-05-01T00:48:23.420Z,7.20
2019-05-01T00:50:53.556Z,7.20
2019-05-01T00:53:23.965Z,7.20
2019-05-01T00:56:01.235Z,7.20
2019-05-01T00:58:50.499Z,7.10
2019-05-01T01:01:39.721Z,7.10
2019-05-01T01:04:11.623Z,7.10
2019-05-01T01:06:41.898Z,7.10
2019-05-01T01:09:12.596Z,7.00
2019-05-01T01:16:41.915Z,6.90
2019-05-01T01:19:12.294Z,6.90
2019-05-01T01:21:43.009Z,6.90
2019-05-01T01:24:13.220Z,6.90
2019-05-01T01:26:43.558Z,6.90
2019-05-01T01:31:43.372Z,6.80
2019-05-01T01:39:13.097Z,6.80
2019-05-01T01:44:18.930Z,6.70
2019-05-01T01:46:49.808Z,6.60
2019-05-01T01:49:20.141Z,6.60
2019-05-01T01:54:20.071Z,6.50
2019-05-01T01:56:50.732Z,6.50
2019-05-01T01:59:21.530Z,6.60
2019-05-01T02:04:57.034Z,6.50
2019-05-01T02:07:27.352Z,6.50
2019-05-01T02:09:57.512Z,6.40
2019-05-01T02:17:26.883Z,6.40
2019-05-01T02:19:57.638Z,6.30
2019-05-01T02:27:34.228Z,6.30
2019-05-01T02:30:06.437Z,6.30
2019-05-01T02:40:25.962Z,6.30
2019-05-01T02:42:58.282Z,6.20
2019-05-01T02:45:30.283Z,6.20
2019-05-01T02:48:01.806Z,6.20
2019-05-01T02:50:34.239Z,6.20
2019-05-01T02:53:04.582Z,6.10
2019-05-01T02:55:40.599Z,6.10
2019-05-01T02:58:11.907Z,6.20
2019-05-01T03:00:42.850Z,6.20
2019-05-01T03:03:13.293Z,6.20
2019-05-01T03:08:13.118Z,6.10
2019-05-01T03:13:13.284Z,6.20
2019-05-01T03:18:27.970Z,6.20
2019-05-01T03:21:10.662Z,6.30
2019-05-01T03:23:51.634Z,6.40
2019-05-01T03:26:21.957Z,6.40
2019-05-01T03:28:52.227Z,6.40
2019-05-01T03:31:22.739Z,6.50
2019-05-01T03:33:52.926Z,6.50
2019-05-01T03:36:23.365Z,6.60
2019-05-01T03:38:53.768Z,6.70
2019-05-01T03:41:24.336Z,6.70
2019-05-01T03:43:54.667Z,6.70
2019-05-01T03:46:25.689Z,6.80
2019-05-01T03:51:25.694Z,7.00
2019-05-01T03:53:56.364Z,7.10
2019-05-01T03:56:27.444Z,7.10
2019-05-01T03:58:57.790Z,7.10
2019-05-01T04:01:46.446Z,7.20
2019-05-01T04:04:19.745Z,7.20
2019-05-01T04:06:50.275Z,7.20
2019-05-01T04:09:20.269Z,7.30
2019-05-01T04:14:20.238Z,7.40
2019-05-01T04:16:54.525Z,7.50
2019-05-01T04:19:24.953Z,7.50
2019-05-01T04:24:33.712Z,7.40
2019-05-01T04:27:05.492Z,7.40
2019-05-01T04:29:48.674Z,7.50
2019-05-01T04:32:24.090Z,7.50
2019-05-01T04:35:22.270Z,7.60
2019-05-01T04:37:53.887Z,7.70
2019-05-01T04:40:24.124Z,7.90
2019-05-01T04:42:54.192Z,7.90
2019-05-01T04:45:24.638Z,7.90
2019-05-01T04:47:54.625Z,8.00
2019-05-01T04:50:24.518Z,8.00
2019-05-01T04:52:54.879Z,8.00
2019-05-01T04:55:24.783Z,8.10
2019-05-01T04:57:54.859Z,8.20
2019-05-01T05:00:24.944Z,8.30
2019-05-01T05:03:05.542Z,8.40
2019-05-01T05:08:04.897Z,8.50
2019-05-01T05:10:34.864Z,8.50
2019-05-01T05:13:14.453Z,8.60
2019-05-01T05:20:52.113Z,8.80
2019-05-01T05:23:22.476Z,8.90
2019-05-01T05:25:53.156Z,9.00
2019-05-01T05:28:24.112Z,9.00
2019-05-01T05:30:56.558Z,9.10
2019-05-01T05:33:30.036Z,9.10
2019-05-01T05:36:01.633Z,9.10
2019-05-01T05:38:40.413Z,9.10
2019-05-01T05:41:10.936Z,9.20
2019-05-01T05:43:41.163Z,9.20
2019-05-01T05:46:11.132Z,9.30
2019-05-01T05:48:41.316Z,9.40
2019-05-01T05:51:35.592Z,9.40
2019-05-01T05:54:14.364Z,9.50
2019-05-01T05:56:51.804Z,9.50
2019-05-01T05:59:26.676Z,9.60
2019-05-01T06:08:01.349Z,9.70
2019-05-01T06:10:53.533Z,9.60
2019-05-01T06:13:42.768Z,9.70
2019-05-01T06:16:31.821Z,9.80
2019-05-01T06:27:13.725Z,9.70
2019-05-01T06:34:42.861Z,9.70
2019-05-01T06:37:13.192Z,9.70
2019-05-01T06:39:47.872Z,9.70
2019-05-01T06:42:16.943Z,9.80
2019-05-01T06:47:38.201Z,9.90
2019-05-01T06:50:24.152Z,10.00
2019-05-01T06:52:54.260Z,9.90
2019-05-01T06:55:27.298Z,9.80
2019-05-01T06:57:56.380Z,9.80
2019-05-01T07:00:26.344Z,9.70
2019-05-01T07:02:57.316Z,9.80
2019-05-01T07:05:27.989Z,9.90
2019-05-01T07:07:58.271Z,9.90
2019-05-01T07:15:30.638Z,10.10
2019-05-01T07:18:00.970Z,10.30
2019-05-01T07:20:51.850Z,10.30
2019-05-01T07:25:52.013Z,10.40
2019-05-01T07:28:23.005Z,10.60
2019-05-01T07:30:56.716Z,10.70
2019-05-01T07:56:33.609Z,11.00
2019-05-01T07:59:03.680Z,11.00
2019-05-01T08:01:44.429Z,11.00
2019-05-01T08:06:45.585Z,11.30
2019-05-01T08:16:46.577Z,11.50
2019-05-01T08:19:34.693Z,11.50
2019-05-01T08:22:06.728Z,11.50
2019-05-01T08:24:36.708Z,11.50
2019-05-01T08:27:08.824Z,11.50
2019-05-01T08:29:57.979Z,11.60
2019-05-01T08:40:27.073Z,12.00
2019-05-01T08:42:57.148Z,12.00
2019-05-01T08:45:43.360Z,12.10
2019-05-01T08:48:35.763Z,12.10
2019-05-01T08:51:02.701Z,12.00
2019-05-01T08:53:32.544Z,12.10
2019-05-01T08:58:31.668Z,12.20
2019-05-01T09:01:01.518Z,12.20
2019-05-01T09:03:31.414Z,12.20
2019-05-01T09:06:01.317Z,12.30
2019-05-01T09:08:32.057Z,12.20
2019-05-01T09:11:02.448Z,12.20
2019-05-01T09:13:32.433Z,12.30
2019-05-01T09:31:18.880Z,12.80
2019-05-01T09:36:18.071Z,12.90
2019-05-01T09:41:18.909Z,13.00
2019-05-01T09:43:48.835Z,13.00
2019-05-01T09:46:18.638Z,13.20
2019-05-01T09:54:09.361Z,13.40
2019-05-01T09:56:38.487Z,13.60
2019-05-01T09:59:12.636Z,13.60
2019-05-01T10:01:40.120Z,13.60
2019-05-01T10:06:39.249Z,14.10
2019-05-01T10:09:12.162Z,14.30
2019-05-01T10:11:41.942Z,14.20
2019-05-01T10:14:12.051Z,14.30
2019-05-01T10:21:40.705Z,14.80
2019-05-01T10:24:10.644Z,15.10
2019-05-01T10:26:42.671Z,15.20
2019-05-01T10:34:59.937Z,15.50
2019-05-01T10:40:01.126Z,15.50
2019-05-01T10:42:31.181Z,15.60
2019-05-01T10:45:01.165Z,15.50
2019-05-01T10:47:31.220Z,15.50
2019-05-01T10:50:01.061Z,15.70
2019-05-01T10:57:29.366Z,15.70
2019-05-01T11:04:57.813Z,15.50
2019-05-01T11:07:27.796Z,15.40
2019-05-01T11:09:57.621Z,15.20
2019-05-01T11:17:26.080Z,14.90
2019-05-01T11:24:54.685Z,14.70
2019-05-01T11:29:53.820Z,14.80
2019-05-01T11:43:34.725Z,15.10
2019-05-01T11:53:32.538Z,15.00
2019-05-01T11:56:02.381Z,15.10
2019-05-01T12:01:02.951Z,15.30
2019-05-01T12:03:32.813Z,15.30
2019-05-01T12:06:02.967Z,15.40
2019-05-01T12:08:32.869Z,15.40
2019-05-01T12:28:37.800Z,15.60
2019-05-01T12:36:07.757Z,15.60
2019-05-01T12:38:37.589Z,15.40
2019-05-01T12:41:25.500Z,15.50
2019-05-01T12:46:43.020Z,15.50
2019-05-01T12:49:15.745Z,15.60
2019-05-01T12:51:46.154Z,15.70
2019-05-01T12:54:27.706Z,15.70
2019-05-01T12:59:27.142Z,15.80
2019-05-01T13:01:57.062Z,15.80
2019-05-01T13:04:26.877Z,15.80
2019-05-01T13:06:59.065Z,15.70
2019-05-01T13:09:28.961Z,15.70
2019-05-01T13:11:58.869Z,15.90
2019-05-01T13:14:28.846Z,15.90
2019-05-01T13:21:57.551Z,16.10
2019-05-01T13:24:27.437Z,16.10
2019-05-01T13:27:15.038Z,16.20
2019-05-01T13:37:32.025Z,16.40
2019-05-01T13:40:02.064Z,16.40
2019-05-01T13:42:32.056Z,16.40
2019-05-01T13:45:01.976Z,16.20
2019-05-01T13:57:29.357Z,16.10
2019-05-01T13:59:59.184Z,16.30
2019-05-01T14:04:58.333Z,16.50
2019-05-01T14:07:28.229Z,16.40
2019-05-01T14:09:58.462Z,16.30
2019-05-01T14:12:28.368Z,16.40
2019-05-01T14:14:58.178Z,16.50
2019-05-01T14:37:44.364Z,16.10
2019-05-01T14:40:14.566Z,16.00
2019-05-01T14:42:44.485Z,16.00
2019-05-01T14:45:17.337Z,16.20
2019-05-01T14:47:47.240Z,16.10
2019-05-01T14:52:46.428Z,16.60
2019-05-01T14:55:16.660Z,16.60
2019-05-01T14:57:46.717Z,16.60
2019-05-01T15:00:17.301Z,16.60
2019-05-01T15:02:47.182Z,16.70
2019-05-01T15:05:17.149Z,16.60
2019-05-01T15:20:55.374Z,16.40
2019-05-01T15:28:23.868Z,16.50
2019-05-01T15:30:53.725Z,16.50
2019-05-01T15:33:23.561Z,16.50
2019-05-01T15:35:53.468Z,16.50
2019-05-01T15:38:23.285Z,16.30
2019-05-01T15:46:12.337Z,16.30
2019-05-01T15:48:42.181Z,16.20
2019-05-01T15:51:12.133Z,16.20
2019-05-01T15:53:41.949Z,16.10
2019-05-01T15:56:11.834Z,16.10
2019-05-01T15:58:41.639Z,16.00
2019-05-01T16:03:40.845Z,16.00
2019-05-01T16:06:10.739Z,16.00
2019-05-01T16:08:40.854Z,15.90
2019-05-01T16:11:18.613Z,15.70
2019-05-01T16:13:48.527Z,15.50
2019-05-01T16:16:19.760Z,15.50
2019-05-01T16:21:18.765Z,15.60
2019-05-01T16:23:48.732Z,15.50
2019-05-01T16:26:18.901Z,15.50
2019-05-01T16:28:48.713Z,15.40
2019-05-01T16:31:18.620Z,15.40
2019-05-01T16:33:48.509Z,15.50
2019-05-01T16:39:07.437Z,15.40
2019-05-01T16:49:06.061Z,15.40
2019-05-01T16:51:37.183Z,15.40
2019-05-01T16:54:07.353Z,15.40
2019-05-01T16:56:37.340Z,15.30
2019-05-01T16:59:07.344Z,15.20
2019-05-01T17:01:52.887Z,15.10
2019-05-01T17:07:17.541Z,15.10
2019-05-01T17:15:18.544Z,14.90
2019-05-01T17:20:20.750Z,15.00
2019-05-01T17:35:23.020Z,14.80
2019-05-01T17:37:52.837Z,14.70
2019-05-01T17:45:21.214Z,14.50
2019-05-01T17:47:52.849Z,14.50
2019-05-01T17:50:22.849Z,14.50
2019-05-01T17:52:52.664Z,14.50
2019-05-01T17:55:22.575Z,14.50
2019-05-01T18:08:35.252Z,14.30
2019-05-01T18:16:04.389Z,14.10
2019-05-01T18:21:03.607Z,13.80
2019-05-01T18:23:53.089Z,13.70
2019-05-01T18:36:49.212Z,13.10
2019-05-01T18:49:26.717Z,12.50
2019-05-01T18:51:56.608Z,12.50
2019-05-01T18:54:30.437Z,12.40
2019-05-01T18:56:58.306Z,12.30
2019-05-01T19:04:27.220Z,12.00
2019-05-01T19:06:57.201Z,11.90
2019-05-01T19:17:00.016Z,11.50
2019-05-01T19:19:29.843Z,11.40
2019-05-01T19:21:59.721Z,11.30
2019-05-01T19:24:32.552Z,11.20
2019-05-01T19:27:01.223Z,11.20
2019-05-01T19:29:32.120Z,11.10
2019-05-01T19:32:02.892Z,11.00
2019-05-01T19:37:02.072Z,10.90
2019-05-01T19:42:07.376Z,10.70
2019-05-01T19:49:37.906Z,10.60
2019-05-01T19:52:07.997Z,10.60
2019-05-01T19:54:37.847Z,10.50
2019-05-01T19:59:37.053Z,10.30
2019-05-01T20:02:07.588Z,10.30
2019-05-01T20:07:10.574Z,10.20
2019-05-01T20:12:08.141Z,10.10
2019-05-01T20:14:38.050Z,10.10
2019-05-01T20:24:39.926Z,9.80
2019-05-01T20:34:36.893Z,9.70
2019-05-01T20:39:35.960Z,9.50
2019-05-01T20:42:06.127Z,9.50
2019-05-01T20:44:35.951Z,9.40
2019-05-01T20:47:05.748Z,9.40
2019-05-01T20:52:06.641Z,9.30
2019-05-01T20:54:36.457Z,9.20
2019-05-01T20:57:20.797Z,9.20
2019-05-01T21:02:18.387Z,9.20
2019-05-01T21:10:25.012Z,8.90
2019-05-01T21:12:50.672Z,9.00
2019-05-01T21:25:19.337Z,8.70
2019-05-01T21:27:49.246Z,8.70
2019-05-01T21:30:19.224Z,8.60
2019-05-01T21:37:47.521Z,8.60
2019-05-01T21:40:17.421Z,8.60
2019-05-01T21:42:51.510Z,8.50
2019-05-01T21:50:17.737Z,8.50
2019-05-01T21:55:18.348Z,8.50
2019-05-01T22:00:24.876Z,8.40
2019-05-01T22:02:52.512Z,8.40
2019-05-01T22:05:22.472Z,8.40
2019-05-01T22:10:26.570Z,8.30
2019-05-01T22:18:14.941Z,8.20
2019-05-01T22:23:22.039Z,8.20
2019-05-01T22:25:56.785Z,8.20
2019-05-01T22:36:28.462Z,8.10
2019-05-01T22:39:02.285Z,8.10
2019-05-01T22:43:59.449Z,8.00
2019-05-01T22:46:33.823Z,8.00
2019-05-01T22:49:01.581Z,8.00
2019-05-01T22:51:31.472Z,7.90
2019-05-01T22:54:01.344Z,7.90
2019-05-01T22:56:31.424Z,7.90
2019-05-01T22:59:01.243Z,7.80
2019-05-01T23:01:31.360Z,7.90
2019-05-01T23:04:04.400Z,8.00
2019-05-01T23:09:07.827Z,8.00
2019-05-01T23:11:41.392Z,8.00
2019-05-01T23:31:53.623Z,8.30
2019-05-01T23:34:26.307Z,8.30
2019-05-01T23:39:24.335Z,8.20
2019-05-01T23:46:52.732Z,8.00
2019-05-01T23:49:22.650Z,8.00
2019-05-01T23:56:51.036Z,7.80
